94th Latvian Open ChampionshipLong Course (50m)
Riga (LAT)19 - 21 Jun 2018
Women, 100m Freestyle, Final,  Open
Women, 100m Freestyle, Prelim,  Open
100m Freestyle - Women, 4 x 100m Freestyle, Timed Final,  Open
Women, 100m Freestyle, Final,  Open21 Jun 2018 - 17:28TimePts.
1.MALUKA, Ieva2003LATBJSS Ridzene-DSN56.03802
2.NIKITINA, Gabriela1994LATBJSS Ridzene-OSC56.72773
3.BAIKOVA, Arina2000LATJurmalas SS57.34748
4.KARAKOUSKAYA, Nastassia1996BLRBelarus57.70734
5.KRITININA, Natalya2001UZBUzbekistan58.96688
6.JARUSEVICIUTE, Diana1999LTUKauno PM1:00.64632
7.KALNIETE, Meja Anete2003LATJelgavas SPS1:00.71630
8.GOBERGA, Marija2002LATBJSS Ridzene-ZIEP1:01.40609
9.SALAJEVA, Anastasija2000LATSK Delfins1:00.42639
10.FRANCUKA, Lija2001LATSK Delfins1:01.08619
11.ARTAMONOVA, Renate2002LATJelgavas SPS1:01.55605
12.GORSKOVA, Veronika2000LATJelgavas SPS1:02.06590
13.MASKAVA, Kristiana2001LATBJSS Ridzene-DSN1:02.19586
14.MONSTVILAITE, Alina2000LATSK Delfins1:02.95565
15.KARASKEVICA, Samanta2003LATBJSS Ridzene-ZOL1:04.67521
DSQALSHEUSKAYA, Anhelina1999BLRBelarusNT-
Women, 100m Freestyle, Prelim,  Open21 Jun 2018 - 10:26TimePts.
1.MALUKA, Ieva2003LATBJSS Ridzene-DSN57.06759
2.NIKITINA, Gabriela1994LATBJSS Ridzene-OSC57.47743
3.BAIKOVA, Arina2000LATJurmalas SS57.86728
4.KARAKOUSKAYA, Nastassia1996BLRBelarus57.91726
5.KRITININA, Natalya2001UZBUzbekistan59.12682
6.VAINIKK, Annika2000ESTPaernu Spordikool59.80659
7.JARUSEVICIUTE, Diana1999LTUKauno PM1:00.40640
8.GOBERGA, Marija2002LATBJSS Ridzene-ZIEP1:01.17616
9.KALNIETE, Meja Anete2003LATJelgavas SPS1:01.65602
10.KULIKOVA, Karolina2000LATLiepajas KSS-LOC1:01.69600
11.FRANCUKA, Lija2001LATSK Delfins1:01.72600
12.MASKAVA, Kristiana2001LATBJSS Ridzene-DSN1:01.94593
13.SALAJEVA, Anastasija2000LATSK Delfins1:02.16587
14.ARTAMONOVA, Renate2002LATJelgavas SPS1:02.18586
15.ALSHEUSKAYA, Anhelina1999BLRBelarus1:02.55576
16.GORSKOVA, Veronika2000LATJelgavas SPS1:03.20558
17.KARASKEVICA, Samanta2003LATBJSS Ridzene-ZOL1:03.59548
18.MONSTVILAITE, Alina2000LATSK Delfins1:03.81543
19.ZVIGURE, Patricija2004LATBJSS Ridzene-OSC1:04.29530
20.FILUSKINA, Lada2001LATJurmalas SS1:04.59523
21.GROZA, Agnese2004LATAdazu BJSS1:05.11511
22.KALNISKE, Mareta2002LATJelgavas SPS1:05.17509
23.KOZLOVSKA, Ruta2001LATBJSS Ridzene-DSN1:05.39504
24.OZOLA, Samanta2002LATBJSS Ridzene-DSN1:05.64498
25.STALMAKOVA, Vladislava2003LATBJSS Ridzene-ZIEP1:06.10488
26.MEDVEDEVA, Laura2002LATBJSS Ridzene-ZIEP1:06.13487
27.PETROVA, Polina2004LATBJSS Ridzene-DSN1:06.15487
28.HOROSKEVICA, Karina2000LATValmieras BSS1:06.17487
29.IVANOVA, Ksenija2002LATKipsalas peldbaseins1:06.55478
30.ATVARE, Linda2004LATBJSS Ridzene-ZIEP1:07.42460
31.BABINA, Marija2004LATBJSS Ridzene-DSN1:07.64455
32.MELNIKOVA, Sofija2003LATSK Delfins1:07.70454
33.PETTINENA, Zlata2004LATSK Delfins1:07.86451
34.ALIPOVA, Darja2005LATSK Delfins1:08.09446
35.BRANKOVA, Valerija2002LATJurmalas SS1:08.23444
36.VIENTIESA, Liene2005LATBJSS Ridzene-OSC1:08.46439
37.MICKEVICA, Sofija2003LATBJSS Ridzene-DSN1:08.48439
38.VINOGRADOVA, Alise2001LATBJSS Ridzene-DSN1:08.88431
39.ZVIGULE, Eliza2002LATAdazu BJSS1:09.56419
40.GLINKO, Karina2001LATBJSS Ridzene-ZOL1:09.59418
41.SIPCENOKA, Aira2005LATBJSS Ridzene-ZIEP1:09.85414
42.MIHAILOVA, Evelina2004LATDaugavpils BJSS1:10.09409
43.RIBAKOVA, Anastasija2005LATBJSS Ridzene-DSN1:10.15408
44.FREIMANE, Nikola2005LATJelgavas SPS1:10.57401
45.ZELMENE, Anna Marija2004LATJelgavas SPS1:10.91395
46.LAGZDINA, Evelina2003LATJelgavas SPS1:11.08392
47.RIZOVA, Jekaterina2005LATBJSS Ridzene-ZIEP1:11.48386
48.HMELEVSKA, Veronika2004LATBJSS Ridzene-ZIEP1:11.62384
49.METENE, Merija2005LATValmieras BSS1:11.89379
50.DZENISA, Emilija2005LATBJSS Ridzene-DSN1:12.06377
51.HAITOVA, Daniela2005LATBJSS Ridzene-DSN1:12.72366
51.PRIEDOLA, Tereze2003LATJurmalas SS1:12.72366
51.SPROGE, Elizabete2004LATJelgavas SPS1:12.72366
54.KOLMAKOVA, Irina2004LATBJSS Ridzene-OSC1:13.02362
55.SIRJAJEVA, Arina2006LATBJSS Ridzene-DSN1:13.04362
56.ELPE, Nikola2007LATJelgavas SPS1:13.42356
57.GRODE, Ksenija2005LATJelgavas SPS1:13.45356
58.KATAJA, Diana2003LATJurmalas SS1:13.52355
59.BERZINA, Daniela2005LATBJSS Ridzene-DSN1:13.89349
60.STALMAKOVA, Milana2004LATBJSS Ridzene-ZIEP1:14.23344
61.CACA, Jana2003LATBJSS Ridzene-ZIEP1:14.32343
62.SEPOVALOVA, Arina2003LATBJSS Ridzene-ZIEP1:14.68338
63.GISA, Olga2004LATJurmalas SS1:15.35329
64.SLOSA, Laura2001LATJurmalas SS1:15.66325
65.FILIPOVA, Jekaterina2002LATJurmalas SS1:19.45281
100m Freestyle - Women, 4 x 100m Freestyle, Timed Final,  Open19 Jun 2018 - 18:02TimePts.
RelayNIKITINA, Gabriela1994LATBJSS Ridzene-OSC57.43744
RelayGOBERGA, Marija2002LATBJSS Ridzene-ZIEP1:00.90624
RelaySALAJEVA, Anastasija2000LATSK Delfins1:01.06619
RelayGORSKOVA, Veronika2000LATJelgavas SPS1:02.78570
RelayBUKA, Kristiana2000LATValmieras BSS1:04.73520